sensor_id;sensor_type;location;lat;lon;timestamp;temperature;humidity
19680;DHT22;9989;48.962;9.182;2023-08-07T00:02:17;13.40;99.90
19680;DHT22;9989;48.962;9.182;2023-08-07T00:04:43;13.30;99.90
19680;DHT22;9989;48.962;9.182;2023-08-07T00:07:09;13.30;99.90
19680;DHT22;9989;48.962;9.182;2023-08-07T00:09:34;13.30;99.90
19680;DHT22;9989;48.962;9.182;2023-08-07T00:12:00;13.30;99.90
19680;DHT22;9989;48.962;9.182;2023-08-07T00:14:26;13.30;99.90
19680;DHT22;9989;48.962;9.182;2023-08-07T00:16:51;13.30;99.90
19680;DHT22;9989;48.962;9.182;2023-08-07T00:19:17;13.30;99.90
19680;DHT22;9989;48.962;9.182;2023-08-07T00:21:42;13.40;99.90
19680;DHT22;9989;48.962;9.182;2023-08-07T00:24:08;13.40;99.90
19680;DHT22;9989;48.962;9.182;2023-08-07T00:26:34;13.40;99.90
19680;DHT22;9989;48.962;9.182;2023-08-07T00:28:59;13.30;99.90
19680;DHT22;9989;48.962;9.182;2023-08-07T00:31:25;13.30;99.90
19680;DHT22;9989;48.962;9.182;2023-08-07T00:33:51;13.30;99.90
19680;DHT22;9989;48.962;9.182;2023-08-07T00:36:19;13.30;99.90
19680;DHT22;9989;48.962;9.182;2023-08-07T00:38:45;13.30;99.90
19680;DHT22;9989;48.962;9.182;2023-08-07T00:41:10;13.30;99.90
19680;DHT22;9989;48.962;9.182;2023-08-07T00:43:36;13.30;99.90
19680;DHT22;9989;48.962;9.182;2023-08-07T00:46:02;13.30;99.90
19680;DHT22;9989;48.962;9.182;2023-08-07T00:48:29;13.30;99.90
19680;DHT22;9989;48.962;9.182;2023-08-07T00:50:55;13.30;99.90
19680;DHT22;9989;48.962;9.182;2023-08-07T00:53:21;13.30;99.90
19680;DHT22;9989;48.962;9.182;2023-08-07T00:55:48;13.30;99.90
19680;DHT22;9989;48.962;9.182;2023-08-07T00:58:14;13.30;99.90
19680;DHT22;9989;48.962;9.182;2023-08-07T01:00:40;13.40;99.90
19680;DHT22;9989;48.962;9.182;2023-08-07T01:03:08;13.40;99.90
19680;DHT22;9989;48.962;9.182;2023-08-07T01:05:34;13.30;99.90
19680;DHT22;9989;48.962;9.182;2023-08-07T01:08:00;13.30;99.90
19680;DHT22;9989;48.962;9.182;2023-08-07T01:11:09;13.30;99.90
19680;DHT22;9989;48.962;9.182;2023-08-07T01:16:15;13.40;99.90
19680;DHT22;9989;48.962;9.182;2023-08-07T01:18:43;13.40;99.90
19680;DHT22;9989;48.962;9.182;2023-08-07T01:21:19;13.40;99.90
19680;DHT22;9989;48.962;9.182;2023-08-07T01:23:47;13.30;99.90
19680;DHT22;9989;48.962;9.182;2023-08-07T01:26:13;13.30;99.90
19680;DHT22;9989;48.962;9.182;2023-08-07T01:28:45;13.30;99.90
19680;DHT22;9989;48.962;9.182;2023-08-07T01:31:14;13.30;99.90
19680;DHT22;9989;48.962;9.182;2023-08-07T01:34:02;13.30;99.90
19680;DHT22;9989;48.962;9.182;2023-08-07T01:36:29;13.30;99.90
19680;DHT22;9989;48.962;9.182;2023-08-07T01:38:59;13.30;99.90
19680;DHT22;9989;48.962;9.182;2023-08-07T01:41:26;13.30;99.90
19680;DHT22;9989;48.962;9.182;2023-08-07T01:43:52;13.30;99.90
19680;DHT22;9989;48.962;9.182;2023-08-07T01:46:19;13.30;99.90
19680;DHT22;9989;48.962;9.182;2023-08-07T01:48:45;13.30;99.90
19680;DHT22;9989;48.962;9.182;2023-08-07T01:51:10;13.30;99.90
19680;DHT22;9989;48.962;9.182;2023-08-07T01:53:36;13.30;99.90
19680;DHT22;9989;48.962;9.182;2023-08-07T01:56:02;13.30;99.90
19680;DHT22;9989;48.962;9.182;2023-08-07T01:58:29;13.30;99.90
19680;DHT22;9989;48.962;9.182;2023-08-07T02:00:55;13.30;99.90
19680;DHT22;9989;48.962;9.182;2023-08-07T02:03:20;13.30;99.90
19680;DHT22;9989;48.962;9.182;2023-08-07T02:05:46;13.30;99.90
19680;DHT22;9989;48.962;9.182;2023-08-07T02:08:12;13.30;99.90
19680;DHT22;9989;48.962;9.182;2023-08-07T02:10:38;13.40;99.90
19680;DHT22;9989;48.962;9.182;2023-08-07T02:13:04;13.40;99.90
19680;DHT22;9989;48.962;9.182;2023-08-07T02:15:30;13.40;99.90
19680;DHT22;9989;48.962;9.182;2023-08-07T02:17:55;13.40;99.90
19680;DHT22;9989;48.962;9.182;2023-08-07T02:20:21;13.40;99.90
19680;DHT22;9989;48.962;9.182;2023-08-07T02:22:47;13.40;99.90
19680;DHT22;9989;48.962;9.182;2023-08-07T02:25:12;13.40;99.90
19680;DHT22;9989;48.962;9.182;2023-08-07T02:27:38;13.40;99.90
19680;DHT22;9989;48.962;9.182;2023-08-07T02:30:05;13.30;99.90
19680;DHT22;9989;48.962;9.182;2023-08-07T02:32:31;13.30;99.90
19680;DHT22;9989;48.962;9.182;2023-08-07T02:34:57;13.30;99.90
19680;DHT22;9989;48.962;9.182;2023-08-07T02:37:23;13.30;99.90
19680;DHT22;9989;48.962;9.182;2023-08-07T02:39:48;13.30;99.90
19680;DHT22;9989;48.962;9.182;2023-08-07T02:42:14;13.30;99.90
19680;DHT22;9989;48.962;9.182;2023-08-07T02:44:40;13.30;99.90
19680;DHT22;9989;48.962;9.182;2023-08-07T02:47:06;13.30;99.90
19680;DHT22;9989;48.962;9.182;2023-08-07T02:49:32;13.30;99.90
19680;DHT22;9989;48.962;9.182;2023-08-07T02:51:58;13.30;99.90
19680;DHT22;9989;48.962;9.182;2023-08-07T02:54:23;13.30;99.90
19680;DHT22;9989;48.962;9.182;2023-08-07T02:56:49;13.30;99.90
19680;DHT22;9989;48.962;9.182;2023-08-07T02:59:15;13.30;99.90
19680;DHT22;9989;48.962;9.182;2023-08-07T03:01:42;13.30;99.90
19680;DHT22;9989;48.962;9.182;2023-08-07T03:04:08;13.20;99.90
19680;DHT22;9989;48.962;9.182;2023-08-07T03:06:34;13.20;99.90
19680;DHT22;9989;48.962;9.182;2023-08-07T03:09:00;13.20;99.90
19680;DHT22;9989;48.962;9.182;2023-08-07T03:11:25;13.20;99.90
19680;DHT22;9989;48.962;9.182;2023-08-07T03:13:51;13.20;99.90
19680;DHT22;9989;48.962;9.182;2023-08-07T03:16:16;13.20;99.90
19680;DHT22;9989;48.962;9.182;2023-08-07T03:18:42;13.20;99.90
19680;DHT22;9989;48.962;9.182;2023-08-07T03:21:08;13.20;99.90
19680;DHT22;9989;48.962;9.182;2023-08-07T03:23:34;13.20;99.90
19680;DHT22;9989;48.962;9.182;2023-08-07T03:26:10;13.20;99.90
19680;DHT22;9989;48.962;9.182;2023-08-07T03:28:36;13.20;99.90
19680;DHT22;9989;48.962;9.182;2023-08-07T03:31:03;13.20;99.90
19680;DHT22;9989;48.962;9.182;2023-08-07T03:33:28;13.30;99.90
19680;DHT22;9989;48.962;9.182;2023-08-07T03:35:54;13.30;99.90
19680;DHT22;9989;48.962;9.182;2023-08-07T03:38:20;13.30;99.90
19680;DHT22;9989;48.962;9.182;2023-08-07T03:40:46;13.30;99.90
19680;DHT22;9989;48.962;9.182;2023-08-07T03:43:12;13.30;99.90
19680;DHT22;9989;48.962;9.182;2023-08-07T03:45:38;13.30;99.90
19680;DHT22;9989;48.962;9.182;2023-08-07T03:48:04;13.30;99.90
19680;DHT22;9989;48.962;9.182;2023-08-07T03:50:30;13.20;99.90
19680;DHT22;9989;48.962;9.182;2023-08-07T03:52:56;13.20;99.90
19680;DHT22;9989;48.962;9.182;2023-08-07T03:55:22;13.30;99.90
19680;DHT22;9989;48.962;9.182;2023-08-07T03:57:47;13.20;99.90
19680;DHT22;9989;48.962;9.182;2023-08-07T04:00:13;13.20;99.90
19680;DHT22;9989;48.962;9.182;2023-08-07T04:02:39;13.30;99.90
19680;DHT22;9989;48.962;9.182;2023-08-07T04:05:06;13.20;99.90
19680;DHT22;9989;48.962;9.182;2023-08-07T04:07:31;13.20;99.90
19680;DHT22;9989;48.962;9.182;2023-08-07T04:09:57;13.20;99.90
19680;DHT22;9989;48.962;9.182;2023-08-07T04:12:23;13.20;99.90
19680;DHT22;9989;48.962;9.182;2023-08-07T04:14:48;13.20;99.90
19680;DHT22;9989;48.962;9.182;2023-08-07T04:17:14;13.20;99.90
19680;DHT22;9989;48.962;9.182;2023-08-07T04:19:40;13.20;99.90
19680;DHT22;9989;48.962;9.182;2023-08-07T04:22:05;13.20;99.90
19680;DHT22;9989;48.962;9.182;2023-08-07T04:24:31;13.20;99.90
19680;DHT22;9989;48.962;9.182;2023-08-07T04:26:56;13.20;99.90
19680;DHT22;9989;48.962;9.182;2023-08-07T04:29:23;13.20;99.90
19680;DHT22;9989;48.962;9.182;2023-08-07T04:31:49;13.20;99.90
19680;DHT22;9989;48.962;9.182;2023-08-07T04:34:15;13.20;99.90
19680;DHT22;9989;48.962;9.182;2023-08-07T04:36:40;13.20;99.90
19680;DHT22;9989;48.962;9.182;2023-08-07T04:39:06;13.20;99.90
19680;DHT22;9989;48.962;9.182;2023-08-07T04:41:32;13.20;99.90
19680;DHT22;9989;48.962;9.182;2023-08-07T04:43:58;13.20;99.90
19680;DHT22;9989;48.962;9.182;2023-08-07T04:46:24;13.20;99.90
19680;DHT22;9989;48.962;9.182;2023-08-07T04:48:49;13.20;99.90
19680;DHT22;9989;48.962;9.182;2023-08-07T04:51:15;13.30;99.90
19680;DHT22;9989;48.962;9.182;2023-08-07T04:53:41;13.30;99.90
19680;DHT22;9989;48.962;9.182;2023-08-07T04:56:06;13.30;99.90
19680;DHT22;9989;48.962;9.182;2023-08-07T04:58:32;13.30;99.90
19680;DHT22;9989;48.962;9.182;2023-08-07T05:01:00;13.30;99.90
19680;DHT22;9989;48.962;9.182;2023-08-07T05:03:26;13.30;99.90
19680;DHT22;9989;48.962;9.182;2023-08-07T05:05:59;13.40;99.90
19680;DHT22;9989;48.962;9.182;2023-08-07T05:08:25;13.40;99.90
19680;DHT22;9989;48.962;9.182;2023-08-07T05:10:51;13.40;99.90
19680;DHT22;9989;48.962;9.182;2023-08-07T05:13:17;13.40;99.90
19680;DHT22;9989;48.962;9.182;2023-08-07T05:15:43;13.40;99.90
19680;DHT22;9989;48.962;9.182;2023-08-07T05:18:08;13.40;99.90
19680;DHT22;9989;48.962;9.182;2023-08-07T05:20:34;13.50;99.90
19680;DHT22;9989;48.962;9.182;2023-08-07T05:22:59;13.50;99.90
19680;DHT22;9989;48.962;9.182;2023-08-07T05:25:26;13.50;99.90
19680;DHT22;9989;48.962;9.182;2023-08-07T05:27:51;13.50;99.90
19680;DHT22;9989;48.962;9.182;2023-08-07T05:30:17;13.50;99.90
19680;DHT22;9989;48.962;9.182;2023-08-07T05:32:42;13.50;99.90
19680;DHT22;9989;48.962;9.182;2023-08-07T05:35:08;13.50;99.90
19680;DHT22;9989;48.962;9.182;2023-08-07T05:37:34;13.50;99.90
19680;DHT22;9989;48.962;9.182;2023-08-07T05:40:01;13.50;99.90
19680;DHT22;9989;48.962;9.182;2023-08-07T05:42:26;13.50;99.90
19680;DHT22;9989;48.962;9.182;2023-08-07T05:44:52;13.50;99.90
19680;DHT22;9989;48.962;9.182;2023-08-07T05:47:18;13.50;99.90
19680;DHT22;9989;48.962;9.182;2023-08-07T05:49:44;13.60;99.90
19680;DHT22;9989;48.962;9.182;2023-08-07T05:52:10;13.60;99.90
19680;DHT22;9989;48.962;9.182;2023-08-07T05:54:35;13.60;99.90
19680;DHT22;9989;48.962;9.182;2023-08-07T05:57:01;13.70;99.90
19680;DHT22;9989;48.962;9.182;2023-08-07T05:59:27;13.70;99.90
19680;DHT22;9989;48.962;9.182;2023-08-07T06:01:53;13.80;99.90
19680;DHT22;9989;48.962;9.182;2023-08-07T06:04:20;13.80;99.90
19680;DHT22;9989;48.962;9.182;2023-08-07T06:06:47;13.80;99.90
19680;DHT22;9989;48.962;9.182;2023-08-07T06:09:12;13.90;99.90
19680;DHT22;9989;48.962;9.182;2023-08-07T06:11:40;14.00;99.90
19680;DHT22;9989;48.962;9.182;2023-08-07T06:14:06;14.00;99.90
19680;DHT22;9989;48.962;9.182;2023-08-07T06:16:32;14.10;99.90
19680;DHT22;9989;48.962;9.182;2023-08-07T06:18:58;14.20;99.90
19680;DHT22;9989;48.962;9.182;2023-08-07T06:21:23;14.20;99.90
19680;DHT22;9989;48.962;9.182;2023-08-07T06:23:49;14.30;99.90
19680;DHT22;9989;48.962;9.182;2023-08-07T06:26:15;14.30;99.90
19680;DHT22;9989;48.962;9.182;2023-08-07T06:28:42;14.40;99.90
19680;DHT22;9989;48.962;9.182;2023-08-07T06:31:09;14.40;99.90
19680;DHT22;9989;48.962;9.182;2023-08-07T06:33:36;14.50;99.90
19680;DHT22;9989;48.962;9.182;2023-08-07T06:36:03;14.60;99.90
19680;DHT22;9989;48.962;9.182;2023-08-07T06:38:29;14.60;99.90
19680;DHT22;9989;48.962;9.182;2023-08-07T06:40:54;14.70;99.90
19680;DHT22;9989;48.962;9.182;2023-08-07T06:43:20;14.70;99.90
19680;DHT22;9989;48.962;9.182;2023-08-07T06:45:49;14.80;99.90
19680;DHT22;9989;48.962;9.182;2023-08-07T06:48:15;14.90;99.90
19680;DHT22;9989;48.962;9.182;2023-08-07T06:50:41;14.90;99.90
19680;DHT22;9989;48.962;9.182;2023-08-07T06:53:06;15.00;99.90
19680;DHT22;9989;48.962;9.182;2023-08-07T06:55:32;15.10;99.90
19680;DHT22;9989;48.962;9.182;2023-08-07T06:57:59;15.10;99.90
19680;DHT22;9989;48.962;9.182;2023-08-07T07:00:24;15.30;99.90
19680;DHT22;9989;48.962;9.182;2023-08-07T07:02:50;15.40;99.90
19680;DHT22;9989;48.962;9.182;2023-08-07T07:05:16;15.50;99.90
19680;DHT22;9989;48.962;9.182;2023-08-07T07:07:41;15.60;99.90
19680;DHT22;9989;48.962;9.182;2023-08-07T07:10:08;15.70;99.90
19680;DHT22;9989;48.962;9.182;2023-08-07T07:12:33;15.80;99.90
19680;DHT22;9989;48.962;9.182;2023-08-07T07:14:59;15.80;99.90
19680;DHT22;9989;48.962;9.182;2023-08-07T07:17:25;15.90;99.90
19680;DHT22;9989;48.962;9.182;2023-08-07T07:19:50;15.90;99.90
19680;DHT22;9989;48.962;9.182;2023-08-07T07:22:16;15.90;99.90
19680;DHT22;9989;48.962;9.182;2023-08-07T07:24:42;15.80;99.90
19680;DHT22;9989;48.962;9.182;2023-08-07T07:27:07;15.70;99.90
19680;DHT22;9989;48.962;9.182;2023-08-07T07:29:33;15.60;99.90
19680;DHT22;9989;48.962;9.182;2023-08-07T07:31:59;15.60;99.90
19680;DHT22;9989;48.962;9.182;2023-08-07T07:34:24;15.50;99.90
19680;DHT22;9989;48.962;9.182;2023-08-07T07:36:50;15.50;99.90
19680;DHT22;9989;48.962;9.182;2023-08-07T07:39:16;15.50;99.90
19680;DHT22;9989;48.962;9.182;2023-08-07T07:41:42;15.50;99.90
19680;DHT22;9989;48.962;9.182;2023-08-07T07:44:08;15.50;99.90
19680;DHT22;9989;48.962;9.182;2023-08-07T07:46:34;15.50;99.90
19680;DHT22;9989;48.962;9.182;2023-08-07T07:48:59;15.60;99.90
19680;DHT22;9989;48.962;9.182;2023-08-07T07:51:26;15.60;99.90
19680;DHT22;9989;48.962;9.182;2023-08-07T07:53:53;15.70;99.90
19680;DHT22;9989;48.962;9.182;2023-08-07T07:56:18;15.70;99.90
19680;DHT22;9989;48.962;9.182;2023-08-07T07:58:44;15.70;99.90
19680;DHT22;9989;48.962;9.182;2023-08-07T08:01:10;15.80;99.90
19680;DHT22;9989;48.962;9.182;2023-08-07T08:03:36;15.80;99.90
19680;DHT22;9989;48.962;9.182;2023-08-07T08:06:02;15.80;99.90
19680;DHT22;9989;48.962;9.182;2023-08-07T08:08:28;15.80;99.90
19680;DHT22;9989;48.962;9.182;2023-08-07T08:10:54;15.80;99.90
19680;DHT22;9989;48.962;9.182;2023-08-07T08:13:20;15.70;99.90
19680;DHT22;9989;48.962;9.182;2023-08-07T08:15:45;15.70;99.90
19680;DHT22;9989;48.962;9.182;2023-08-07T08:18:11;15.70;99.90
19680;DHT22;9989;48.962;9.182;2023-08-07T08:20:38;15.70;99.90
19680;DHT22;9989;48.962;9.182;2023-08-07T08:23:04;15.70;99.90
19680;DHT22;9989;48.962;9.182;2023-08-07T08:25:30;15.80;99.90
19680;DHT22;9989;48.962;9.182;2023-08-07T08:27:56;15.80;99.90
19680;DHT22;9989;48.962;9.182;2023-08-07T08:30:22;15.90;99.90
19680;DHT22;9989;48.962;9.182;2023-08-07T08:32:48;15.90;99.90
19680;DHT22;9989;48.962;9.182;2023-08-07T08:35:13;16.00;99.90
19680;DHT22;9989;48.962;9.182;2023-08-07T08:37:39;16.10;99.90
19680;DHT22;9989;48.962;9.182;2023-08-07T08:40:06;16.10;99.90
19680;DHT22;9989;48.962;9.182;2023-08-07T08:42:33;16.20;99.90
19680;DHT22;9989;48.962;9.182;2023-08-07T08:45:01;16.30;99.90
19680;DHT22;9989;48.962;9.182;2023-08-07T08:47:29;16.40;99.90
19680;DHT22;9989;48.962;9.182;2023-08-07T08:50:06;16.50;99.90
19680;DHT22;9989;48.962;9.182;2023-08-07T08:52:32;16.50;99.90
19680;DHT22;9989;48.962;9.182;2023-08-07T08:54:59;16.60;99.90
19680;DHT22;9989;48.962;9.182;2023-08-07T08:57:25;16.70;99.90
19680;DHT22;9989;48.962;9.182;2023-08-07T08:59:54;16.80;99.90
19680;DHT22;9989;48.962;9.182;2023-08-07T09:02:20;16.90;99.90
19680;DHT22;9989;48.962;9.182;2023-08-07T09:04:46;16.90;99.90
19680;DHT22;9989;48.962;9.182;2023-08-07T09:07:14;17.00;99.90
19680;DHT22;9989;48.962;9.182;2023-08-07T09:09:40;17.10;99.90
19680;DHT22;9989;48.962;9.182;2023-08-07T09:12:16;17.20;99.90
19680;DHT22;9989;48.962;9.182;2023-08-07T09:14:44;17.30;99.90
19680;DHT22;9989;48.962;9.182;2023-08-07T09:17:11;17.40;99.90
19680;DHT22;9989;48.962;9.182;2023-08-07T09:19:38;17.50;99.90
19680;DHT22;9989;48.962;9.182;2023-08-07T09:22:04;17.60;99.90
19680;DHT22;9989;48.962;9.182;2023-08-07T09:24:30;17.60;99.90
19680;DHT22;9989;48.962;9.182;2023-08-07T09:26:56;17.60;99.90
19680;DHT22;9989;48.962;9.182;2023-08-07T09:29:22;17.60;99.90
19680;DHT22;9989;48.962;9.182;2023-08-07T09:31:48;17.60;99.90
19680;DHT22;9989;48.962;9.182;2023-08-07T09:34:13;17.60;99.90
19680;DHT22;9989;48.962;9.182;2023-08-07T09:36:43;17.70;99.90
19680;DHT22;9989;48.962;9.182;2023-08-07T09:39:09;17.70;99.90
19680;DHT22;9989;48.962;9.182;2023-08-07T09:41:35;17.90;99.90
19680;DHT22;9989;48.962;9.182;2023-08-07T09:44:07;18.00;99.90
19680;DHT22;9989;48.962;9.182;2023-08-07T09:46:43;18.20;99.90
19680;DHT22;9989;48.962;9.182;2023-08-07T09:49:10;18.30;99.90
19680;DHT22;9989;48.962;9.182;2023-08-07T09:51:46;18.40;99.90
19680;DHT22;9989;48.962;9.182;2023-08-07T09:54:13;18.50;99.90
19680;DHT22;9989;48.962;9.182;2023-08-07T09:56:43;18.60;99.90
19680;DHT22;9989;48.962;9.182;2023-08-07T09:59:09;18.80;99.90
19680;DHT22;9989;48.962;9.182;2023-08-07T10:01:38;18.80;99.90
19680;DHT22;9989;48.962;9.182;2023-08-07T10:04:05;19.00;99.90
19680;DHT22;9989;48.962;9.182;2023-08-07T10:06:32;19.00;99.90
19680;DHT22;9989;48.962;9.182;2023-08-07T10:08:57;19.10;99.90
19680;DHT22;9989;48.962;9.182;2023-08-07T10:11:25;19.20;99.90
19680;DHT22;9989;48.962;9.182;2023-08-07T10:13:51;19.20;99.90
19680;DHT22;9989;48.962;9.182;2023-08-07T10:16:17;19.20;99.90
19680;DHT22;9989;48.962;9.182;2023-08-07T10:18:42;19.20;99.90
19680;DHT22;9989;48.962;9.182;2023-08-07T10:21:08;19.20;99.90
19680;DHT22;9989;48.962;9.182;2023-08-07T10:23:35;19.10;99.90
19680;DHT22;9989;48.962;9.182;2023-08-07T10:26:04;19.00;99.90
19680;DHT22;9989;48.962;9.182;2023-08-07T10:28:33;18.90;99.90
19680;DHT22;9989;48.962;9.182;2023-08-07T10:31:00;18.80;99.90
19680;DHT22;9989;48.962;9.182;2023-08-07T10:33:26;18.80;99.90
19680;DHT22;9989;48.962;9.182;2023-08-07T10:35:52;18.80;99.90
19680;DHT22;9989;48.962;9.182;2023-08-07T10:38:19;18.90;99.90
19680;DHT22;9989;48.962;9.182;2023-08-07T10:41:03;18.90;99.90
19680;DHT22;9989;48.962;9.182;2023-08-07T10:43:31;19.00;99.90
19680;DHT22;9989;48.962;9.182;2023-08-07T10:46:11;19.10;99.90
19680;DHT22;9989;48.962;9.182;2023-08-07T10:51:06;19.00;99.90
19680;DHT22;9989;48.962;9.182;2023-08-07T10:53:36;18.90;99.90
19680;DHT22;9989;48.962;9.182;2023-08-07T10:56:08;18.80;99.90
19680;DHT22;9989;48.962;9.182;2023-08-07T10:58:39;18.60;99.90
19680;DHT22;9989;48.962;9.182;2023-08-07T11:03:53;18.40;99.90
19680;DHT22;9989;48.962;9.182;2023-08-07T11:08:51;18.20;99.90
19680;DHT22;9989;48.962;9.182;2023-08-07T11:11:17;18.20;99.90
19680;DHT22;9989;48.962;9.182;2023-08-07T11:13:43;18.10;99.90
19680;DHT22;9989;48.962;9.182;2023-08-07T11:16:09;18.00;99.90
19680;DHT22;9989;48.962;9.182;2023-08-07T11:18:35;18.00;99.90
19680;DHT22;9989;48.962;9.182;2023-08-07T11:21:07;18.00;99.90
19680;DHT22;9989;48.962;9.182;2023-08-07T11:23:33;18.00;99.90
19680;DHT22;9989;48.962;9.182;2023-08-07T11:25:59;18.00;99.90
19680;DHT22;9989;48.962;9.182;2023-08-07T11:28:24;18.00;99.90
19680;DHT22;9989;48.962;9.182;2023-08-07T11:30:52;18.10;99.90
19680;DHT22;9989;48.962;9.182;2023-08-07T11:33:19;18.20;99.90
19680;DHT22;9989;48.962;9.182;2023-08-07T11:35:46;18.20;99.90
19680;DHT22;9989;48.962;9.182;2023-08-07T11:38:12;18.30;99.90
19680;DHT22;9989;48.962;9.182;2023-08-07T11:40:37;18.40;99.90
19680;DHT22;9989;48.962;9.182;2023-08-07T11:43:03;18.50;99.90
19680;DHT22;9989;48.962;9.182;2023-08-07T11:45:29;18.50;99.90
19680;DHT22;9989;48.962;9.182;2023-08-07T11:47:55;18.60;99.90
19680;DHT22;9989;48.962;9.182;2023-08-07T11:50:27;18.50;99.90
19680;DHT22;9989;48.962;9.182;2023-08-07T11:52:53;18.50;99.90
19680;DHT22;9989;48.962;9.182;2023-08-07T11:55:19;18.40;99.90
19680;DHT22;9989;48.962;9.182;2023-08-07T11:57:48;18.30;99.90
19680;DHT22;9989;48.962;9.182;2023-08-07T12:00:13;18.30;99.90
19680;DHT22;9989;48.962;9.182;2023-08-07T12:02:43;18.40;99.90
19680;DHT22;9989;48.962;9.182;2023-08-07T12:05:12;18.50;99.90
19680;DHT22;9989;48.962;9.182;2023-08-07T12:07:39;18.70;99.90
19680;DHT22;9989;48.962;9.182;2023-08-07T12:10:07;18.90;99.90
19680;DHT22;9989;48.962;9.182;2023-08-07T12:12:35;19.00;99.90
19680;DHT22;9989;48.962;9.182;2023-08-07T12:15:01;19.10;99.90
19680;DHT22;9989;48.962;9.182;2023-08-07T12:17:33;19.20;99.90
19680;DHT22;9989;48.962;9.182;2023-08-07T12:19:59;19.30;99.90
19680;DHT22;9989;48.962;9.182;2023-08-07T12:22:27;19.40;99.90
19680;DHT22;9989;48.962;9.182;2023-08-07T12:24:54;19.40;99.90
19680;DHT22;9989;48.962;9.182;2023-08-07T12:27:20;19.40;99.90
19680;DHT22;9989;48.962;9.182;2023-08-07T12:29:45;19.40;99.90
19680;DHT22;9989;48.962;9.182;2023-08-07T12:32:11;19.50;99.90
19680;DHT22;9989;48.962;9.182;2023-08-07T12:34:37;19.40;99.90
19680;DHT22;9989;48.962;9.182;2023-08-07T12:37:04;19.40;99.90
19680;DHT22;9989;48.962;9.182;2023-08-07T12:39:29;19.40;99.90
19680;DHT22;9989;48.962;9.182;2023-08-07T12:41:55;19.40;99.90
19680;DHT22;9989;48.962;9.182;2023-08-07T12:44:21;19.50;99.90
19680;DHT22;9989;48.962;9.182;2023-08-07T12:46:46;19.60;99.90
19680;DHT22;9989;48.962;9.182;2023-08-07T12:49:12;19.70;99.90
19680;DHT22;9989;48.962;9.182;2023-08-07T12:51:39;19.70;99.90
19680;DHT22;9989;48.962;9.182;2023-08-07T12:54:04;19.80;99.90
19680;DHT22;9989;48.962;9.182;2023-08-07T12:56:30;19.80;99.90
19680;DHT22;9989;48.962;9.182;2023-08-07T12:58:56;19.70;99.90
19680;DHT22;9989;48.962;9.182;2023-08-07T13:01:21;19.70;99.90
19680;DHT22;9989;48.962;9.182;2023-08-07T13:03:47;19.50;99.90
19680;DHT22;9989;48.962;9.182;2023-08-07T13:06:12;19.40;99.90
19680;DHT22;9989;48.962;9.182;2023-08-07T13:08:39;19.30;99.90
19680;DHT22;9989;48.962;9.182;2023-08-07T13:11:05;19.20;99.90
19680;DHT22;9989;48.962;9.182;2023-08-07T13:13:31;19.20;99.90
19680;DHT22;9989;48.962;9.182;2023-08-07T13:15:57;19.10;99.90
19680;DHT22;9989;48.962;9.182;2023-08-07T13:18:24;19.10;99.90
19680;DHT22;9989;48.962;9.182;2023-08-07T13:20:49;19.00;99.90
19680;DHT22;9989;48.962;9.182;2023-08-07T13:23:15;19.00;99.90
19680;DHT22;9989;48.962;9.182;2023-08-07T13:25:41;19.10;99.90
19680;DHT22;9989;48.962;9.182;2023-08-07T13:28:06;19.20;99.90
19680;DHT22;9989;48.962;9.182;2023-08-07T13:30:33;19.30;99.90
19680;DHT22;9989;48.962;9.182;2023-08-07T13:32:59;19.60;99.90
19680;DHT22;9989;48.962;9.182;2023-08-07T13:35:25;19.80;99.90
19680;DHT22;9989;48.962;9.182;2023-08-07T13:37:50;20.20;99.90
19680;DHT22;9989;48.962;9.182;2023-08-07T13:40:16;20.50;99.90
19680;DHT22;9989;48.962;9.182;2023-08-07T13:42:42;20.80;99.90
19680;DHT22;9989;48.962;9.182;2023-08-07T13:45:09;20.90;99.90
19680;DHT22;9989;48.962;9.182;2023-08-07T13:47:35;21.10;99.90
19680;DHT22;9989;48.962;9.182;2023-08-07T13:50:01;21.10;99.90
19680;DHT22;9989;48.962;9.182;2023-08-07T13:52:27;21.20;99.90
19680;DHT22;9989;48.962;9.182;2023-08-07T13:54:53;21.20;99.90
19680;DHT22;9989;48.962;9.182;2023-08-07T13:57:19;21.20;99.90
19680;DHT22;9989;48.962;9.182;2023-08-07T13:59:44;21.20;99.80
19680;DHT22;9989;48.962;9.182;2023-08-07T14:02:10;21.20;99.90
19680;DHT22;9989;48.962;9.182;2023-08-07T14:04:36;21.30;99.90
19680;DHT22;9989;48.962;9.182;2023-08-07T14:07:02;21.40;99.80
19680;DHT22;9989;48.962;9.182;2023-08-07T14:09:28;21.40;99.90
19680;DHT22;9989;48.962;9.182;2023-08-07T14:11:53;21.30;99.60
19680;DHT22;9989;48.962;9.182;2023-08-07T14:14:21;21.20;99.90
19680;DHT22;9989;48.962;9.182;2023-08-07T14:16:46;21.30;99.50
19680;DHT22;9989;48.962;9.182;2023-08-07T14:19:12;21.20;99.90
19680;DHT22;9989;48.962;9.182;2023-08-07T14:21:38;21.10;99.90
19680;DHT22;9989;48.962;9.182;2023-08-07T14:24:05;20.90;99.90
19680;DHT22;9989;48.962;9.182;2023-08-07T14:26:31;20.80;99.30
19680;DHT22;9989;48.962;9.182;2023-08-07T14:28:56;20.60;98.70
19680;DHT22;9989;48.962;9.182;2023-08-07T14:31:22;20.40;99.30
19680;DHT22;9989;48.962;9.182;2023-08-07T14:33:48;20.40;98.70
19680;DHT22;9989;48.962;9.182;2023-08-07T14:36:13;20.30;98.50
19680;DHT22;9989;48.962;9.182;2023-08-07T14:38:40;20.40;98.40
19680;DHT22;9989;48.962;9.182;2023-08-07T14:41:06;20.50;98.60
19680;DHT22;9989;48.962;9.182;2023-08-07T14:43:32;20.70;97.10
19680;DHT22;9989;48.962;9.182;2023-08-07T14:45:58;20.80;97.30
19680;DHT22;9989;48.962;9.182;2023-08-07T14:48:24;20.90;96.50
19680;DHT22;9989;48.962;9.182;2023-08-07T14:50:50;21.00;96.60
19680;DHT22;9989;48.962;9.182;2023-08-07T14:53:16;21.10;96.60
19680;DHT22;9989;48.962;9.182;2023-08-07T14:55:44;21.00;95.90
19680;DHT22;9989;48.962;9.182;2023-08-07T14:58:09;20.90;96.50
19680;DHT22;9989;48.962;9.182;2023-08-07T15:00:35;20.70;97.70
19680;DHT22;9989;48.962;9.182;2023-08-07T15:03:01;20.50;98.00
19680;DHT22;9989;48.962;9.182;2023-08-07T15:05:27;20.20;98.20
19680;DHT22;9989;48.962;9.182;2023-08-07T15:07:53;20.10;98.90
19680;DHT22;9989;48.962;9.182;2023-08-07T15:10:19;19.90;99.70
19680;DHT22;9989;48.962;9.182;2023-08-07T15:12:47;19.60;99.90
19680;DHT22;9989;48.962;9.182;2023-08-07T15:15:13;19.50;99.90
19680;DHT22;9989;48.962;9.182;2023-08-07T15:17:39;19.50;99.90
19680;DHT22;9989;48.962;9.182;2023-08-07T15:20:05;19.50;99.90
19680;DHT22;9989;48.962;9.182;2023-08-07T15:22:31;19.70;99.90
19680;DHT22;9989;48.962;9.182;2023-08-07T15:24:57;19.80;99.90
19680;DHT22;9989;48.962;9.182;2023-08-07T15:27:22;20.00;99.90
19680;DHT22;9989;48.962;9.182;2023-08-07T15:29:48;20.10;99.90
19680;DHT22;9989;48.962;9.182;2023-08-07T15:32:14;20.20;99.90
19680;DHT22;9989;48.962;9.182;2023-08-07T15:34:40;20.30;99.90
19680;DHT22;9989;48.962;9.182;2023-08-07T15:37:06;20.30;99.90
19680;DHT22;9989;48.962;9.182;2023-08-07T15:39:31;20.20;99.90
19680;DHT22;9989;48.962;9.182;2023-08-07T15:41:57;20.10;99.90
19680;DHT22;9989;48.962;9.182;2023-08-07T15:44:23;20.00;99.90
19680;DHT22;9989;48.962;9.182;2023-08-07T15:46:48;19.90;99.90
19680;DHT22;9989;48.962;9.182;2023-08-07T15:49:14;19.80;99.90
19680;DHT22;9989;48.962;9.182;2023-08-07T15:51:40;19.80;99.90